createdAt,value
2022-12-12T00:00:51.152Z,21.73
2022-12-12T00:03:24.834Z,19.30
2022-12-12T00:05:58.079Z,18.92
2022-12-12T00:08:31.452Z,26.40
2022-12-12T00:11:06.803Z,18.15
2022-12-12T00:13:39.958Z,19.12
2022-12-12T00:16:13.743Z,18.60
2022-12-12T00:18:47.137Z,20.43
2022-12-12T00:21:22.669Z,18.67
2022-12-12T00:23:58.090Z,20.75
2022-12-12T00:26:33.788Z,22.10
2022-12-12T00:29:07.391Z,22.10
2022-12-12T00:31:40.866Z,20.20
2022-12-12T00:34:15.317Z,25.77
2022-12-12T00:36:48.546Z,18.23
2022-12-12T00:39:23.181Z,20.20
2022-12-12T00:41:56.345Z,16.60
2022-12-12T00:44:29.518Z,18.87
2022-12-12T00:47:03.000Z,27.52
2022-12-12T00:49:36.364Z,22.90
2022-12-12T00:52:09.532Z,33.48
2022-12-12T00:54:42.489Z,16.97
2022-12-12T00:57:15.664Z,19.85
2022-12-12T00:59:48.844Z,25.12
2022-12-12T01:02:27.858Z,24.50
2022-12-12T01:04:56.916Z,23.67
2022-12-12T01:07:30.164Z,24.15
2022-12-12T01:10:02.969Z,21.15
2022-12-12T01:12:36.382Z,21.27
2022-12-12T01:15:13.168Z,22.40
2022-12-12T01:17:46.315Z,19.15
2022-12-12T01:20:22.420Z,18.87
2022-12-12T01:22:56.800Z,26.52
2022-12-12T01:25:29.877Z,15.95
2022-12-12T01:28:03.515Z,20.55
2022-12-12T01:30:36.895Z,20.27
2022-12-12T01:33:10.145Z,19.77
2022-12-12T01:35:43.356Z,21.57
2022-12-12T01:38:16.504Z,18.05
2022-12-12T01:40:49.790Z,20.35
2022-12-12T01:43:24.293Z,20.95
2022-12-12T01:46:49.681Z,17.65
2022-12-12T01:49:27.528Z,13.85
2022-12-12T01:52:03.586Z,16.25
2022-12-12T01:54:39.495Z,20.55
2022-12-12T01:57:15.792Z,21.95
2022-12-12T01:59:49.480Z,18.67
2022-12-12T02:02:22.938Z,18.52
2022-12-12T02:04:56.285Z,16.52
2022-12-12T02:07:29.382Z,20.10
2022-12-12T02:10:02.408Z,15.18
2022-12-12T02:12:42.536Z,17.40
2022-12-12T02:15:16.060Z,15.15
2022-12-12T02:18:03.790Z,15.98
2022-12-12T02:21:01.421Z,14.87
2022-12-12T02:24:29.931Z,17.05
2022-12-12T02:27:51.545Z,23.25
2022-12-12T02:30:26.392Z,18.40
2022-12-12T02:33:13.143Z,15.90
2022-12-12T02:35:53.009Z,13.32
2022-12-12T02:38:29.446Z,14.95
2022-12-12T02:41:09.901Z,12.98
2022-12-12T02:43:45.599Z,13.78
2022-12-12T02:46:21.748Z,14.90
2022-12-12T02:48:58.084Z,17.85
2022-12-12T02:51:33.471Z,14.68
2022-12-12T02:54:09.031Z,22.77
2022-12-12T02:56:51.562Z,15.72
2022-12-12T02:59:27.837Z,16.02
2022-12-12T03:02:59.011Z,8.05
2022-12-12T03:05:58.699Z,17.00
2022-12-12T03:08:43.188Z,12.13
2022-12-12T03:11:19.319Z,16.77
2022-12-12T03:13:56.084Z,12.45
2022-12-12T03:16:32.821Z,15.38
2022-12-12T03:19:09.210Z,17.67
2022-12-12T03:21:45.163Z,13.20
2022-12-12T03:24:22.551Z,13.43
2022-12-12T03:26:58.734Z,16.70
2022-12-12T03:29:34.587Z,12.35
2022-12-12T03:32:10.637Z,16.37
2022-12-12T03:34:46.742Z,8.90
2022-12-12T03:37:23.855Z,17.50
2022-12-12T03:39:59.649Z,9.37
2022-12-12T03:42:36.923Z,14.43
2022-12-12T03:45:14.840Z,15.08
2022-12-12T03:47:52.754Z,14.05
2022-12-12T03:50:28.917Z,10.88
2022-12-12T03:53:04.928Z,11.38
2022-12-12T03:55:42.065Z,16.00
2022-12-12T03:58:18.006Z,15.28
2022-12-12T04:00:53.019Z,13.98
2022-12-12T04:03:29.719Z,14.40
2022-12-12T04:06:56.241Z,10.15
2022-12-12T04:10:00.225Z,13.83
2022-12-12T04:12:56.106Z,14.83
2022-12-12T04:15:59.675Z,10.20
2022-12-12T04:18:43.914Z,10.50
2022-12-12T04:21:42.890Z,18.12
2022-12-12T04:24:22.152Z,14.05
2022-12-12T04:26:59.033Z,9.05
2022-12-12T04:29:41.465Z,15.03
2022-12-12T04:32:18.830Z,11.35
2022-12-12T04:34:54.856Z,11.65
2022-12-12T04:37:30.634Z,9.45
2022-12-12T04:40:06.073Z,10.20
2022-12-12T04:42:42.116Z,10.65
2022-12-12T04:45:18.385Z,9.43
2022-12-12T04:47:54.852Z,8.63
2022-12-12T04:50:30.809Z,13.65
2022-12-12T04:53:06.144Z,11.50
2022-12-12T04:55:43.842Z,13.33
2022-12-12T04:58:17.578Z,13.30
2022-12-12T05:00:54.089Z,12.80
2022-12-12T05:03:30.369Z,12.75
2022-12-12T05:06:06.724Z,6.67
2022-12-12T05:08:42.850Z,14.40
2022-12-12T05:11:18.598Z,16.90
2022-12-12T05:13:52.297Z,9.15
2022-12-12T05:16:28.363Z,13.48
2022-12-12T05:19:01.876Z,17.35
2022-12-12T05:21:35.039Z,8.75
2022-12-12T05:24:09.219Z,10.08
2022-12-12T05:26:42.467Z,16.42
2022-12-12T05:29:15.635Z,18.30
2022-12-12T05:31:48.573Z,13.43
2022-12-12T05:34:21.798Z,10.53
2022-12-12T05:36:55.458Z,15.58
2022-12-12T05:39:28.664Z,11.10
2022-12-12T05:42:01.725Z,11.53
2022-12-12T05:44:34.728Z,17.07
2022-12-12T05:47:08.093Z,11.78
2022-12-12T05:49:41.092Z,16.57
2022-12-12T05:52:14.539Z,11.03
2022-12-12T05:54:47.746Z,12.23
2022-12-12T05:57:21.215Z,12.37
2022-12-12T05:59:54.133Z,13.53
2022-12-12T06:02:27.407Z,9.48
2022-12-12T06:05:00.468Z,10.95
2022-12-12T06:07:34.389Z,9.33
2022-12-12T06:10:09.592Z,9.90
2022-12-12T06:12:43.884Z,7.97
2022-12-12T06:15:17.567Z,12.70
2022-12-12T06:17:52.159Z,7.15
2022-12-12T06:20:25.757Z,9.28
2022-12-12T06:22:58.948Z,9.10
2022-12-12T06:25:32.427Z,8.40
2022-12-12T06:28:05.710Z,10.85
2022-12-12T06:30:39.510Z,7.45
2022-12-12T06:33:12.683Z,12.53
2022-12-12T06:35:46.697Z,10.28
2022-12-12T06:38:20.632Z,13.83
2022-12-12T06:40:54.235Z,8.05
2022-12-12T06:43:27.571Z,8.73
2022-12-12T06:46:04.308Z,8.55
2022-12-12T06:48:37.997Z,8.38
2022-12-12T06:51:13.083Z,14.55
2022-12-12T06:53:46.402Z,9.95
2022-12-12T06:56:21.345Z,10.80
2022-12-12T06:58:55.256Z,10.38
2022-12-12T07:01:28.715Z,14.80
2022-12-12T07:04:02.075Z,8.78
2022-12-12T07:06:35.438Z,8.38
2022-12-12T07:09:09.279Z,9.70
2022-12-12T07:11:42.629Z,16.20
2022-12-12T07:14:15.717Z,14.65
2022-12-12T07:16:49.071Z,8.65
2022-12-12T07:19:23.516Z,13.53
2022-12-12T07:21:56.708Z,12.25
2022-12-12T07:24:29.862Z,9.40
2022-12-12T07:27:02.685Z,11.75
2022-12-12T07:29:36.204Z,12.45
2022-12-12T07:32:09.352Z,11.10
2022-12-12T07:34:42.572Z,10.48
2022-12-12T07:37:15.728Z,20.85
2022-12-12T07:39:48.893Z,13.70
2022-12-12T07:42:21.982Z,13.32
2022-12-12T07:44:55.247Z,19.42
2022-12-12T07:47:28.540Z,14.53
2022-12-12T07:50:01.257Z,13.50
2022-12-12T07:52:34.465Z,19.55
2022-12-12T07:55:09.247Z,14.83
2022-12-12T07:57:42.741Z,15.40
2022-12-12T08:00:18.236Z,16.87
2022-12-12T08:02:51.823Z,16.60
2022-12-12T08:05:25.729Z,13.70
2022-12-12T08:07:59.003Z,9.78
2022-12-12T08:10:32.259Z,19.02
2022-12-12T08:13:05.081Z,13.32
2022-12-12T08:15:38.476Z,20.27
2022-12-12T08:18:11.614Z,17.50
2022-12-12T08:20:44.946Z,15.32
2022-12-12T08:23:18.121Z,15.95
2022-12-12T08:25:51.293Z,19.27
2022-12-12T08:28:24.396Z,18.73
2022-12-12T08:30:57.579Z,14.47
2022-12-12T08:33:31.539Z,12.43
2022-12-12T08:36:13.372Z,21.70
2022-12-12T08:38:46.797Z,12.90
2022-12-12T08:41:20.594Z,16.80
2022-12-12T08:43:54.344Z,12.90
2022-12-12T08:46:27.524Z,18.80
2022-12-12T08:49:00.916Z,19.98
2022-12-12T08:51:34.494Z,21.05
2022-12-12T08:54:08.605Z,19.40
2022-12-12T08:56:42.179Z,17.10
2022-12-12T08:59:15.455Z,17.05
2022-12-12T09:01:48.694Z,14.18
2022-12-12T09:04:23.543Z,16.60
2022-12-12T09:06:57.477Z,20.20
2022-12-12T09:09:31.210Z,19.92
2022-12-12T09:12:04.758Z,19.57
2022-12-12T09:14:38.214Z,16.05
2022-12-12T09:17:11.226Z,20.35
2022-12-12T09:19:45.876Z,23.22
2022-12-12T09:22:18.955Z,22.35
2022-12-12T09:24:52.128Z,17.67
2022-12-12T09:27:25.508Z,19.27
2022-12-12T09:29:59.379Z,20.65
2022-12-12T09:32:34.396Z,20.88
2022-12-12T09:35:08.827Z,20.62
2022-12-12T09:37:41.987Z,24.37
2022-12-12T09:40:19.224Z,22.07
2022-12-12T09:42:54.423Z,22.87
2022-12-12T09:45:41.162Z,24.37
2022-12-12T09:48:17.070Z,22.15
2022-12-12T09:50:51.215Z,14.15
2022-12-12T09:53:27.068Z,18.87
2022-12-12T09:56:04.302Z,20.05
2022-12-12T09:58:45.086Z,18.27
2022-12-12T10:01:18.250Z,17.20
2022-12-12T10:03:58.083Z,19.05
2022-12-12T10:06:37.815Z,23.90
2022-12-12T10:09:17.360Z,17.12
2022-12-12T10:11:55.022Z,16.32
2022-12-12T10:14:34.552Z,20.50
2022-12-12T10:17:10.466Z,23.25
2022-12-12T10:19:49.403Z,19.52
2022-12-12T10:22:27.508Z,25.23
2022-12-12T10:25:05.720Z,22.55
2022-12-12T10:27:59.624Z,20.70
2022-12-12T10:30:35.370Z,22.30
2022-12-12T10:33:15.679Z,15.65
2022-12-12T10:35:52.575Z,26.10
2022-12-12T10:38:35.530Z,17.00
2022-12-12T10:41:11.508Z,26.40
2022-12-12T10:43:47.723Z,25.97
2022-12-12T10:46:26.474Z,30.60
2022-12-12T10:49:00.078Z,27.25
2022-12-12T10:51:33.449Z,23.70
2022-12-12T10:54:13.389Z,31.12
2022-12-12T10:57:19.822Z,17.25
2022-12-12T10:59:51.310Z,26.33
2022-12-12T11:02:32.873Z,34.73
2022-12-12T11:05:14.341Z,24.10
2022-12-12T11:07:53.646Z,29.05
2022-12-12T11:10:33.998Z,23.67
2022-12-12T11:13:22.527Z,25.90
2022-12-12T11:15:59.896Z,30.37
2022-12-12T11:18:33.268Z,29.80
2022-12-12T11:21:09.869Z,27.07
2022-12-12T11:23:45.957Z,35.05
2022-12-12T11:26:21.657Z,22.15
2022-12-12T11:28:58.093Z,28.73
2022-12-12T11:31:34.747Z,27.45
2022-12-12T11:34:09.180Z,21.15
2022-12-12T11:36:43.993Z,21.23
2022-12-12T11:39:21.135Z,19.65
2022-12-12T11:42:06.302Z,30.10
2022-12-12T11:44:40.348Z,31.77
2022-12-12T11:50:22.922Z,20.52
2022-12-12T11:52:58.635Z,44.83
2022-12-12T11:55:36.879Z,36.35
2022-12-12T11:58:17.090Z,33.85
2022-12-12T12:00:54.327Z,42.53
2022-12-12T12:03:40.679Z,37.98
2022-12-12T12:06:25.118Z,43.23
2022-12-12T12:09:09.763Z,32.35
2022-12-12T12:11:46.027Z,43.45
2022-12-12T12:14:28.733Z,41.10
2022-12-12T12:17:05.066Z,28.98
2022-12-12T12:19:45.645Z,46.70
2022-12-12T12:22:24.159Z,52.33
2022-12-12T12:25:09.184Z,45.95
2022-12-12T12:27:47.447Z,35.52
2022-12-12T12:30:24.089Z,32.38
2022-12-12T12:33:12.763Z,37.17
2022-12-12T12:35:51.795Z,31.62
2022-12-12T12:38:29.321Z,30.02
2022-12-12T12:41:13.734Z,27.60
2022-12-12T12:43:58.649Z,28.92
2022-12-12T12:46:38.232Z,37.15
2022-12-12T12:49:16.728Z,27.93
2022-12-12T12:51:53.688Z,20.85
2022-12-12T12:54:28.909Z,30.70
2022-12-12T12:57:05.670Z,22.10
2022-12-12T12:59:41.936Z,30.17
2022-12-12T13:02:26.574Z,26.73
2022-12-12T13:05:00.367Z,23.95
2022-12-12T13:07:40.885Z,27.05
2022-12-12T13:10:19.028Z,24.45
2022-12-12T13:12:56.084Z,24.98
2022-12-12T13:15:32.789Z,18.33
2022-12-12T13:18:09.331Z,29.25
2022-12-12T13:20:45.767Z,21.65
2022-12-12T13:23:26.185Z,19.50
2022-12-12T13:26:02.976Z,18.87
2022-12-12T13:28:38.646Z,22.70
2022-12-12T13:31:39.329Z,21.75
2022-12-12T13:34:15.422Z,17.67
2022-12-12T13:36:51.079Z,17.75
2022-12-12T13:39:30.325Z,13.95
2022-12-12T13:42:05.853Z,13.53
2022-12-12T13:44:42.254Z,19.80
2022-12-12T13:47:35.901Z,16.80
2022-12-12T13:50:17.211Z,16.50
2022-12-12T13:53:10.871Z,11.93
2022-12-12T13:55:46.323Z,15.00
2022-12-12T13:58:38.071Z,15.50
2022-12-12T14:01:37.467Z,15.25
2022-12-12T14:04:27.121Z,16.05
2022-12-12T14:07:05.372Z,12.18
2022-12-12T14:09:48.123Z,14.53
2022-12-12T14:12:27.499Z,14.28
2022-12-12T14:14:59.444Z,12.03
2022-12-12T14:17:42.340Z,15.98
2022-12-12T14:20:24.868Z,13.78
2022-12-12T14:23:31.196Z,13.70
2022-12-12T14:26:06.029Z,14.68
2022-12-12T14:28:39.174Z,13.55
2022-12-12T14:31:17.213Z,13.05
2022-12-12T14:34:14.099Z,9.65
2022-12-12T14:37:15.561Z,8.07
2022-12-12T14:39:58.476Z,12.95
2022-12-12T14:43:18.999Z,5.92
2022-12-12T14:45:38.522Z,11.70
2022-12-12T14:50:51.025Z,8.50
2022-12-12T14:53:25.998Z,8.88
2022-12-12T14:56:02.566Z,10.40
2022-12-12T14:58:38.802Z,9.93
2022-12-12T15:01:12.955Z,9.35
2022-12-12T15:03:48.939Z,9.15
2022-12-12T15:06:28.932Z,14.80
2022-12-12T15:09:11.529Z,9.63
2022-12-12T15:11:45.315Z,11.73
2022-12-12T15:14:22.435Z,7.58
2022-12-12T15:17:00.103Z,8.20
2022-12-12T15:19:36.362Z,11.53
2022-12-12T15:22:15.027Z,9.55
2022-12-12T15:24:48.721Z,12.70
2022-12-12T15:27:25.123Z,9.98
2022-12-12T15:29:59.056Z,10.85
2022-12-12T15:32:34.373Z,10.32
2022-12-12T15:35:16.790Z,11.70
2022-12-12T15:37:58.015Z,10.95
2022-12-12T15:40:32.374Z,14.43
2022-12-12T15:43:08.676Z,12.88
2022-12-12T15:45:44.783Z,10.80
2022-12-12T15:48:19.609Z,9.63
2022-12-12T15:50:58.102Z,13.80
2022-12-12T15:53:33.284Z,10.60
2022-12-12T15:56:09.191Z,7.42
2022-12-12T15:58:45.382Z,13.28
2022-12-12T16:01:22.529Z,10.05
2022-12-12T16:04:01.120Z,12.10
2022-12-12T16:06:38.164Z,12.68
2022-12-12T16:09:18.799Z,9.68
2022-12-12T16:11:54.971Z,11.65
2022-12-12T16:14:40.585Z,8.88
2022-12-12T16:17:14.355Z,8.50
2022-12-12T16:19:50.855Z,9.18
2022-12-12T16:22:39.677Z,11.73
2022-12-12T16:25:21.390Z,12.25
2022-12-12T16:27:58.019Z,10.53
2022-12-12T16:30:31.676Z,12.55
2022-12-12T16:33:15.609Z,11.12
2022-12-12T16:35:48.684Z,11.03
2022-12-12T16:38:29.047Z,13.38
2022-12-12T16:41:04.756Z,8.65
2022-12-12T16:43:39.629Z,10.00
2022-12-12T16:46:22.315Z,7.37
2022-12-12T16:48:59.804Z,12.60
2022-12-12T16:54:17.310Z,9.95
2022-12-12T16:56:52.786Z,11.12
2022-12-12T16:59:25.904Z,11.30
2022-12-12T17:02:02.797Z,12.28
2022-12-12T17:04:43.158Z,11.73
2022-12-12T17:07:22.755Z,13.35
2022-12-12T17:10:06.364Z,11.12
2022-12-12T17:12:40.625Z,13.50
2022-12-12T17:15:17.664Z,14.80
2022-12-12T17:17:51.083Z,13.95
2022-12-12T17:20:24.524Z,13.38
2022-12-12T17:22:58.020Z,11.57
2022-12-12T17:25:32.345Z,10.70
2022-12-12T17:28:07.387Z,11.50
2022-12-12T17:30:42.550Z,12.60
2022-12-12T17:33:18.947Z,12.37
2022-12-12T17:36:01.311Z,11.80
2022-12-12T17:38:34.814Z,13.95
2022-12-12T17:41:09.209Z,12.63
2022-12-12T17:43:42.368Z,9.38
2022-12-12T17:46:19.507Z,17.32
2022-12-12T17:48:57.452Z,10.32
2022-12-12T17:51:33.001Z,9.98
2022-12-12T17:54:07.186Z,11.60
2022-12-12T17:56:41.709Z,11.48
2022-12-12T17:59:17.240Z,10.80
2022-12-12T18:01:52.400Z,9.90
2022-12-12T18:04:28.565Z,13.30
2022-12-12T18:07:01.688Z,12.73
2022-12-12T18:09:35.749Z,8.45
2022-12-12T18:12:09.984Z,13.90
2022-12-12T18:14:49.649Z,7.72
2022-12-12T18:17:24.995Z,9.55
2022-12-12T18:19:58.772Z,8.10
2022-12-12T18:22:33.937Z,9.58
2022-12-12T18:25:10.591Z,10.90
2022-12-12T18:27:46.114Z,11.55
2022-12-12T18:30:22.146Z,8.05
2022-12-12T18:33:02.757Z,10.10
2022-12-12T18:38:58.428Z,11.83
2022-12-12T18:41:33.078Z,7.00
2022-12-12T18:44:08.357Z,9.38
2022-12-12T18:46:43.435Z,8.55
2022-12-12T18:49:18.420Z,9.50
2022-12-12T18:51:51.690Z,7.87
2022-12-12T18:54:24.724Z,10.53
2022-12-12T18:56:57.949Z,12.40
2022-12-12T18:59:32.086Z,8.20
2022-12-12T19:02:08.898Z,10.80
2022-12-12T19:04:44.299Z,9.23
